Ping An Song — BOEH — position and weather

sailwx.info

Track history (hours):
 
Tides and Currents Weather Stations Pressure Air Temp Water Temp Dewpoint Dewpoint Depression Visibility Wind Speed Wind Dir Waves Ship Positions

Ping An Song

Last reported at 2017-Sep-21 12:49 UTC. Time now 2017-Sep-22 02:37 UTC.
Position N 37°23' E 025°55'.

Length 180 m; draft 9.8 m.

Type: Cargo ship. MMSI: 413471950.

Date/timePositionNaut miles runAvg speedWind from/ knotsBaromVisibWave heightAir tempDewpointWater temp
2017-Sep-21 12:49N 37°23' E 025°55'514.5
2017-Sep-21 12:30N 37°27' E 025°53'914.1
2017-Sep-21 11:53N 37°35' E 025°48'514.1
2017-Sep-21 11:30N 37°40' E 025°45'714.4
2017-Sep-21 11:01N 37°47' E 025°42'260 8.5
2017-Sep-20 04:29N 41°13' E 029°07'510.2
2017-Sep-20 04:00N 41°18' E 029°08'12 2.3
2017-Sep-19 22:51N 41°30' E 029°09'0 0.3
2017-Sep-19 22:28N 41°30' E 029°09'0 0.3
2017-Sep-19 22:00N 41°30' E 029°09'0 0.4
2017-Sep-19 21:30N 41°30' E 029°10'0 0.5
2017-Sep-19 21:00N 41°30' E 029°10'0 0.5
2017-Sep-19 20:09N 41°29' E 029°10'0 2.9
2017-Sep-19 20:00N 41°29' E 029°10'1 1.6
2017-Sep-19 19:17N 41°28' E 029°10'0 0.6
2017-Sep-19 18:56N 41°28' E 029°10'1 0.7
2017-Sep-19 17:46N 41°28' E 029°11'0 0.7
2017-Sep-19 17:19N 41°28' E 029°12'0 0.8
2017-Sep-19 16:57N 41°28' E 029°12'1 0.8
2017-Sep-19 16:15N 41°28' E 029°13'0 0.6
2017-Sep-19 16:00N 41°28' E 029°13'0 0.6
2017-Sep-19 15:30N 41°29' E 029°13'2 0.6
2017-Sep-19 11:22N 41°30' E 029°16'1 0.1
2017-Sep-19 03:49N 41°30' E 029°15'0 0.5
2017-Sep-19 03:02N 41°30' E 029°15'0 0.5
2017-Sep-19 03:00N 41°30' E 029°15'0 0.5
2017-Sep-19 02:30N 41°30' E 029°15'0 0.5
2017-Sep-19 02:00N 41°30' E 029°15'0 0.5
2017-Sep-19 01:02N 41°31' E 029°16'0 0.4
2017-Sep-19 00:52N 41°31' E 029°16'0 0.4
2017-Sep-19 00:30N 41°31' E 029°15'1 0.5
2017-Sep-18 23:05N 41°32' E 029°15'0 0.1
2017-Sep-18 23:00N 41°32' E 029°15'0 0.3
2017-Sep-18 22:14N 41°32' E 029°15'0 1.4
2017-Sep-18 22:00N 41°31' E 029°16'4 6.4
2017-Sep-18 21:27N 41°33' E 029°20'512.0
2017-Sep-18 21:00N 41°37' E 029°24'713.7
2017-Sep-18 20:30N 41°43' E 029°29'713.7
2017-Sep-18 20:00N 41°49' E 029°34'713.8
2017-Sep-18 19:30N 41°54' E 029°39'813.9
2017-Sep-18 18:58N 42°00' E 029°45'813.9
2017-Sep-18 18:25N 42°07' E 029°51'614.0
2017-Sep-18 17:58N 42°12' E 029°56'612.7
2017-Sep-18 17:30N 42°15' E 030°03'714.1
2017-Sep-18 17:01N 42°15' E 030°12'714.1
2017-Sep-18 16:31N 42°15' E 030°22'714.0
2017-Sep-18 16:00N 42°15' E 030°31'714.0
2017-Sep-18 15:29N 42°15' E 030°41'1213.9
2017-Sep-18 14:35N 42°15' E 030°58'1113.9
2017-Sep-18 13:46N 42°15' E 031°13'1613.8
2017-Sep-18 12:37N 42°15' E 031°35'1213.7
2017-Sep-18 11:46N 42°15' E 031°51'413.7
2017-Sep-18 11:29N 42°15' E 031°56'2113.6
2017-Sep-18 09:56N 42°15' E 032°24'713.6
2017-Sep-18 09:24N 42°15' E 032°34'513.4
2017-Sep-18 09:00N 42°15' E 032°41'713.2
2017-Sep-18 08:30N 42°15' E 032°50'713.1
2017-Sep-18 08:00N 42°15' E 032°59'3313.0
2017-Sep-18 05:30N 42°15' E 033°43'813.3
2017-Sep-18 04:54N 42°15' E 033°54'613.7
2017-Sep-18 04:29N 42°15' E 034°02'713.8
2017-Sep-18 04:00N 42°15' E 034°11'713.6
2017-Sep-18 03:30N 42°15' E 034°20'713.8
2017-Sep-18 03:00N 42°15' E 034°29'2313.7
2017-Sep-18 01:20N 42°15' E 034°60'1213.5
2017-Sep-18 00:29N 42°15' E 035°16'713.7
2017-Sep-18 00:00N 42°15' E 035°24'713.7
2017-Sep-17 23:30N 42°15' E 035°34'713.6
2017-Sep-17 22:57N 42°15' E 035°44'613.6
2017-Sep-17 22:30N 42°15' E 035°52'713.3
2017-Sep-17 21:59N 42°15' E 036°01'9013.5
2017-Sep-17 15:20N 41°47' E 037°56'  
2017-Sep-14 16:03N 41°02' E 040°31'0 0.1
2017-Sep-14 16:00N 41°02' E 040°31'0 0.0
2017-Sep-14 15:30N 41°02' E 040°31'0 0.0
2017-Sep-14 15:00N 41°02' E 040°31'0 0.0
2017-Sep-14 14:30N 41°02' E 040°31'0 0.0
2017-Sep-14 13:09N 41°02' E 040°31'  
2017-Sep-11 23:22N 42°09' E 041°40'0 0.0
2017-Sep-11 22:55N 42°09' E 041°40'0 0.0
2017-Sep-11 16:01N 42°09' E 041°40'0 0.0
2017-Sep-11 15:49N 42°09' E 041°40'0 0.0
2017-Sep-11 14:25N 42°09' E 041°40'0 0.0
2017-Sep-11 13:43N 42°09' E 041°40'0 0.1
2017-Sep-11 13:30N 42°09' E 041°40'0 0.6
2017-Sep-11 13:00N 42°09' E 041°39'  
Track history (hours):
 
Tides and Currents Weather Stations Pressure Air Temp Water Temp Dewpoint Dewpoint Depression Visibility Wind Speed Wind Dir Waves Ship Positions

Ping An Song

Last reported at 2017-Sep-21 12:49 UTC. Time now 2017-Sep-22 02:37 UTC.
Position N 37°23' E 025°55'.

Length 180 m; draft 9.8 m.

Type: Cargo ship. MMSI: 413471950.

Date/timePositionNaut miles runAvg speedWind from/ knotsBaromVisibWave heightAir tempDewpointWater temp
2017-Sep-21 12:49N 37°23' E 025°55'514.5
2017-Sep-21 12:30N 37°27' E 025°53'914.1
2017-Sep-21 11:53N 37°35' E 025°48'514.1
2017-Sep-21 11:30N 37°40' E 025°45'714.4
2017-Sep-21 11:01N 37°47' E 025°42'260 8.5
2017-Sep-20 04:29N 41°13' E 029°07'510.2
2017-Sep-20 04:00N 41°18' E 029°08'12 2.3
2017-Sep-19 22:51N 41°30' E 029°09'0 0.3
2017-Sep-19 22:28N 41°30' E 029°09'0 0.3
2017-Sep-19 22:00N 41°30' E 029°09'0 0.4
2017-Sep-19 21:30N 41°30' E 029°10'0 0.5
2017-Sep-19 21:00N 41°30' E 029°10'0 0.5
2017-Sep-19 20:09N 41°29' E 029°10'0 2.9
2017-Sep-19 20:00N 41°29' E 029°10'1 1.6
2017-Sep-19 19:17N 41°28' E 029°10'0 0.6
2017-Sep-19 18:56N 41°28' E 029°10'1 0.7
2017-Sep-19 17:46N 41°28' E 029°11'0 0.7
2017-Sep-19 17:19N 41°28' E 029°12'0 0.8
2017-Sep-19 16:57N 41°28' E 029°12'1 0.8
2017-Sep-19 16:15N 41°28' E 029°13'0 0.6
2017-Sep-19 16:00N 41°28' E 029°13'0 0.6
2017-Sep-19 15:30N 41°29' E 029°13'2 0.6
2017-Sep-19 11:22N 41°30' E 029°16'1 0.1
2017-Sep-19 03:49N 41°30' E 029°15'0 0.5
2017-Sep-19 03:02N 41°30' E 029°15'0 0.5
2017-Sep-19 03:00N 41°30' E 029°15'0 0.5
2017-Sep-19 02:30N 41°30' E 029°15'0 0.5
2017-Sep-19 02:00N 41°30' E 029°15'0 0.5
2017-Sep-19 01:02N 41°31' E 029°16'0 0.4
2017-Sep-19 00:52N 41°31' E 029°16'0 0.4
2017-Sep-19 00:30N 41°31' E 029°15'1 0.5
2017-Sep-18 23:05N 41°32' E 029°15'0 0.1
2017-Sep-18 23:00N 41°32' E 029°15'0 0.3
2017-Sep-18 22:14N 41°32' E 029°15'0 1.4
2017-Sep-18 22:00N 41°31' E 029°16'4 6.4
2017-Sep-18 21:27N 41°33' E 029°20'512.0
2017-Sep-18 21:00N 41°37' E 029°24'713.7
2017-Sep-18 20:30N 41°43' E 029°29'713.7
2017-Sep-18 20:00N 41°49' E 029°34'713.8
2017-Sep-18 19:30N 41°54' E 029°39'813.9
2017-Sep-18 18:58N 42°00' E 029°45'813.9
2017-Sep-18 18:25N 42°07' E 029°51'614.0
2017-Sep-18 17:58N 42°12' E 029°56'612.7
2017-Sep-18 17:30N 42°15' E 030°03'714.1
2017-Sep-18 17:01N 42°15' E 030°12'714.1
2017-Sep-18 16:31N 42°15' E 030°22'714.0
2017-Sep-18 16:00N 42°15' E 030°31'714.0
2017-Sep-18 15:29N 42°15' E 030°41'1213.9
2017-Sep-18 14:35N 42°15' E 030°58'1113.9
2017-Sep-18 13:46N 42°15' E 031°13'1613.8
2017-Sep-18 12:37N 42°15' E 031°35'1213.7
2017-Sep-18 11:46N 42°15' E 031°51'413.7
2017-Sep-18 11:29N 42°15' E 031°56'2113.6
2017-Sep-18 09:56N 42°15' E 032°24'713.6
2017-Sep-18 09:24N 42°15' E 032°34'513.4
2017-Sep-18 09:00N 42°15' E 032°41'713.2
2017-Sep-18 08:30N 42°15' E 032°50'713.1
2017-Sep-18 08:00N 42°15' E 032°59'3313.0
2017-Sep-18 05:30N 42°15' E 033°43'813.3
2017-Sep-18 04:54N 42°15' E 033°54'613.7
2017-Sep-18 04:29N 42°15' E 034°02'713.8
2017-Sep-18 04:00N 42°15' E 034°11'713.6
2017-Sep-18 03:30N 42°15' E 034°20'713.8
2017-Sep-18 03:00N 42°15' E 034°29'2313.7
2017-Sep-18 01:20N 42°15' E 034°60'1213.5
2017-Sep-18 00:29N 42°15' E 035°16'713.7
2017-Sep-18 00:00N 42°15' E 035°24'713.7
2017-Sep-17 23:30N 42°15' E 035°34'713.6
2017-Sep-17 22:57N 42°15' E 035°44'613.6
2017-Sep-17 22:30N 42°15' E 035°52'713.3
2017-Sep-17 21:59N 42°15' E 036°01'9013.5
2017-Sep-17 15:20N 41°47' E 037°56'  
2017-Sep-14 16:03N 41°02' E 040°31'0 0.1
2017-Sep-14 16:00N 41°02' E 040°31'0 0.0
2017-Sep-14 15:30N 41°02' E 040°31'0 0.0
2017-Sep-14 15:00N 41°02' E 040°31'0 0.0
2017-Sep-14 14:30N 41°02' E 040°31'0 0.0
2017-Sep-14 13:09N 41°02' E 040°31'  
2017-Sep-11 23:22N 42°09' E 041°40'0 0.0
2017-Sep-11 22:55N 42°09' E 041°40'0 0.0
2017-Sep-11 16:01N 42°09' E 041°40'0 0.0
2017-Sep-11 15:49N 42°09' E 041°40'0 0.0
2017-Sep-11 14:25N 42°09' E 041°40'0 0.0
2017-Sep-11 13:43N 42°09' E 041°40'0 0.1
2017-Sep-11 13:30N 42°09' E 041°40'0 0.6
2017-Sep-11 13:00N 42°09' E 041°39'  

Dump ship's entire track history